sensor_id;sensor_type;location;lat;lon;timestamp;temperature;humidity
24148;DHT22;12309;51.450;-2.624;2023-03-03T00:00:46;5.70;99.90
24148;DHT22;12309;51.450;-2.624;2023-03-03T00:03:15;6.40;99.90
24148;DHT22;12309;51.450;-2.624;2023-03-03T00:05:41;5.80;99.90
24148;DHT22;12309;51.450;-2.624;2023-03-03T00:08:07;5.70;99.90
24148;DHT22;12309;51.450;-2.624;2023-03-03T00:10:33;5.70;99.90
24148;DHT22;12309;51.450;-2.624;2023-03-03T00:12:59;5.70;99.90
24148;DHT22;12309;51.450;-2.624;2023-03-03T00:15:26;5.70;99.90
24148;DHT22;12309;51.450;-2.624;2023-03-03T00:17:52;5.70;99.90
24148;DHT22;12309;51.450;-2.624;2023-03-03T00:22:55;5.80;99.90
24148;DHT22;12309;51.450;-2.624;2023-03-03T00:25:28;5.80;99.90
24148;DHT22;12309;51.450;-2.624;2023-03-03T00:27:55;5.70;99.90
24148;DHT22;12309;51.450;-2.624;2023-03-03T00:30:26;5.60;99.90
24148;DHT22;12309;51.450;-2.624;2023-03-03T00:32:53;5.50;99.90
24148;DHT22;12309;51.450;-2.624;2023-03-03T00:35:31;5.40;99.90
24148;DHT22;12309;51.450;-2.624;2023-03-03T00:38:08;5.50;99.90
24148;DHT22;12309;51.450;-2.624;2023-03-03T00:40:39;5.40;99.90
24148;DHT22;12309;51.450;-2.624;2023-03-03T00:43:22;5.40;99.90
24148;DHT22;12309;51.450;-2.624;2023-03-03T00:45:48;5.30;99.90
24148;DHT22;12309;51.450;-2.624;2023-03-03T00:48:28;5.30;99.90
24148;DHT22;12309;51.450;-2.624;2023-03-03T00:50:56;5.20;99.90
24148;DHT22;12309;51.450;-2.624;2023-03-03T00:53:24;5.20;99.90
24148;DHT22;12309;51.450;-2.624;2023-03-03T00:55:51;5.10;99.90
24148;DHT22;12309;51.450;-2.624;2023-03-03T00:58:17;5.10;99.90
24148;DHT22;12309;51.450;-2.624;2023-03-03T01:00:49;5.10;99.90
24148;DHT22;12309;51.450;-2.624;2023-03-03T01:03:18;5.10;99.90
24148;DHT22;12309;51.450;-2.624;2023-03-03T01:05:45;5.20;99.90
24148;DHT22;12309;51.450;-2.624;2023-03-03T01:08:11;5.70;99.90
24148;DHT22;12309;51.450;-2.624;2023-03-03T01:10:41;5.10;99.90
24148;DHT22;12309;51.450;-2.624;2023-03-03T01:13:07;5.00;99.90
24148;DHT22;12309;51.450;-2.624;2023-03-03T01:15:33;5.20;99.90
24148;DHT22;12309;51.450;-2.624;2023-03-03T01:17:59;5.10;99.90
24148;DHT22;12309;51.450;-2.624;2023-03-03T01:20:25;5.10;99.90
24148;DHT22;12309;51.450;-2.624;2023-03-03T01:22:51;5.70;99.90
24148;DHT22;12309;51.450;-2.624;2023-03-03T01:25:16;5.10;99.90
24148;DHT22;12309;51.450;-2.624;2023-03-03T01:27:42;5.10;99.90
24148;DHT22;12309;51.450;-2.624;2023-03-03T01:30:08;5.10;99.90
24148;DHT22;12309;51.450;-2.624;2023-03-03T01:32:34;5.10;99.90
24148;DHT22;12309;51.450;-2.624;2023-03-03T01:35:00;5.00;99.90
24148;DHT22;12309;51.450;-2.624;2023-03-03T01:37:25;5.00;99.90
24148;DHT22;12309;51.450;-2.624;2023-03-03T01:39:54;5.00;99.90
24148;DHT22;12309;51.450;-2.624;2023-03-03T01:42:20;5.00;99.90
24148;DHT22;12309;51.450;-2.624;2023-03-03T01:44:46;5.10;99.90
24148;DHT22;12309;51.450;-2.624;2023-03-03T01:47:16;5.10;99.90
24148;DHT22;12309;51.450;-2.624;2023-03-03T01:49:50;5.10;99.90
24148;DHT22;12309;51.450;-2.624;2023-03-03T01:52:40;5.10;99.90
24148;DHT22;12309;51.450;-2.624;2023-03-03T01:55:29;5.10;99.90
24148;DHT22;12309;51.450;-2.624;2023-03-03T01:58:13;5.30;99.90
24148;DHT22;12309;51.450;-2.624;2023-03-03T02:00:42;5.20;99.90
24148;DHT22;12309;51.450;-2.624;2023-03-03T02:03:10;5.20;99.90
24148;DHT22;12309;51.450;-2.624;2023-03-03T02:05:37;5.20;99.90
24148;DHT22;12309;51.450;-2.624;2023-03-03T02:08:06;5.30;99.90
24148;DHT22;12309;51.450;-2.624;2023-03-03T02:10:35;5.40;99.90
24148;DHT22;12309;51.450;-2.624;2023-03-03T02:13:00;5.40;99.90
24148;DHT22;12309;51.450;-2.624;2023-03-03T02:15:29;5.40;99.90
24148;DHT22;12309;51.450;-2.624;2023-03-03T02:17:59;5.50;99.90
24148;DHT22;12309;51.450;-2.624;2023-03-03T02:23:35;5.50;99.90
24148;DHT22;12309;51.450;-2.624;2023-03-03T02:26:08;5.50;99.90
24148;DHT22;12309;51.450;-2.624;2023-03-03T02:28:35;5.70;99.90
24148;DHT22;12309;51.450;-2.624;2023-03-03T02:31:05;5.50;99.90
24148;DHT22;12309;51.450;-2.624;2023-03-03T02:33:30;5.60;99.90
24148;DHT22;12309;51.450;-2.624;2023-03-03T02:35:56;5.50;99.90
24148;DHT22;12309;51.450;-2.624;2023-03-03T02:38:43;5.50;99.90
24148;DHT22;12309;51.450;-2.624;2023-03-03T02:44:17;5.60;99.90
24148;DHT22;12309;51.450;-2.624;2023-03-03T02:46:45;5.60;99.90
24148;DHT22;12309;51.450;-2.624;2023-03-03T02:49:17;5.60;99.90
24148;DHT22;12309;51.450;-2.624;2023-03-03T02:51:43;5.60;99.90
24148;DHT22;12309;51.450;-2.624;2023-03-03T02:54:11;5.60;99.90
24148;DHT22;12309;51.450;-2.624;2023-03-03T02:56:37;5.60;99.90
24148;DHT22;12309;51.450;-2.624;2023-03-03T02:59:03;5.70;99.90
24148;DHT22;12309;51.450;-2.624;2023-03-03T03:01:29;5.60;99.90
24148;DHT22;12309;51.450;-2.624;2023-03-03T03:03:57;5.60;99.90
24148;DHT22;12309;51.450;-2.624;2023-03-03T03:06:23;7.90;99.90
24148;DHT22;12309;51.450;-2.624;2023-03-03T03:08:48;5.60;99.90
24148;DHT22;12309;51.450;-2.624;2023-03-03T03:11:14;5.70;99.90
24148;DHT22;12309;51.450;-2.624;2023-03-03T03:13:40;5.30;99.90
24148;DHT22;12309;51.450;-2.624;2023-03-03T03:16:06;5.70;99.90
24148;DHT22;12309;51.450;-2.624;2023-03-03T03:18:31;5.70;99.90
24148;DHT22;12309;51.450;-2.624;2023-03-03T03:21:05;5.80;99.90
24148;DHT22;12309;51.450;-2.624;2023-03-03T03:23:30;5.70;99.90
24148;DHT22;12309;51.450;-2.624;2023-03-03T03:25:56;5.80;99.90
24148;DHT22;12309;51.450;-2.624;2023-03-03T03:28:21;5.70;99.90
24148;DHT22;12309;51.450;-2.624;2023-03-03T03:30:50;5.70;99.90
24148;DHT22;12309;51.450;-2.624;2023-03-03T03:33:16;5.60;99.90
24148;DHT22;12309;51.450;-2.624;2023-03-03T03:35:41;5.60;99.90
24148;DHT22;12309;51.450;-2.624;2023-03-03T03:38:10;5.70;99.90
24148;DHT22;12309;51.450;-2.624;2023-03-03T03:40:36;5.70;99.90
24148;DHT22;12309;51.450;-2.624;2023-03-03T03:43:01;5.70;99.90
24148;DHT22;12309;51.450;-2.624;2023-03-03T03:45:27;5.80;99.90
24148;DHT22;12309;51.450;-2.624;2023-03-03T03:47:53;5.80;99.90
24148;DHT22;12309;51.450;-2.624;2023-03-03T03:50:18;5.70;99.90
24148;DHT22;12309;51.450;-2.624;2023-03-03T03:52:44;5.70;99.90
24148;DHT22;12309;51.450;-2.624;2023-03-03T03:55:09;5.80;99.90
24148;DHT22;12309;51.450;-2.624;2023-03-03T03:57:35;5.80;99.90
24148;DHT22;12309;51.450;-2.624;2023-03-03T04:00:01;5.80;99.90
24148;DHT22;12309;51.450;-2.624;2023-03-03T04:02:26;5.80;99.90
24148;DHT22;12309;51.450;-2.624;2023-03-03T04:04:52;5.70;99.90
24148;DHT22;12309;51.450;-2.624;2023-03-03T04:07:18;5.80;99.90
24148;DHT22;12309;51.450;-2.624;2023-03-03T04:09:43;5.80;99.90
24148;DHT22;12309;51.450;-2.624;2023-03-03T04:12:09;5.90;99.90
24148;DHT22;12309;51.450;-2.624;2023-03-03T04:14:35;7.00;99.90
24148;DHT22;12309;51.450;-2.624;2023-03-03T04:17:00;5.70;99.90
24148;DHT22;12309;51.450;-2.624;2023-03-03T04:19:26;5.80;99.90
24148;DHT22;12309;51.450;-2.624;2023-03-03T04:21:52;5.80;99.90
24148;DHT22;12309;51.450;-2.624;2023-03-03T04:24:17;5.80;99.90
24148;DHT22;12309;51.450;-2.624;2023-03-03T04:26:44;5.80;99.90
24148;DHT22;12309;51.450;-2.624;2023-03-03T04:29:09;5.70;99.90
24148;DHT22;12309;51.450;-2.624;2023-03-03T04:31:35;5.70;99.90
24148;DHT22;12309;51.450;-2.624;2023-03-03T04:34:01;5.80;99.90
24148;DHT22;12309;51.450;-2.624;2023-03-03T04:36:26;5.70;99.90
24148;DHT22;12309;51.450;-2.624;2023-03-03T04:38:52;5.80;99.90
24148;DHT22;12309;51.450;-2.624;2023-03-03T04:41:18;5.80;99.90
24148;DHT22;12309;51.450;-2.624;2023-03-03T04:43:43;5.80;99.90
24148;DHT22;12309;51.450;-2.624;2023-03-03T04:46:09;5.80;99.90
24148;DHT22;12309;51.450;-2.624;2023-03-03T04:48:34;5.80;99.90
24148;DHT22;12309;51.450;-2.624;2023-03-03T04:51:00;5.70;99.90
24148;DHT22;12309;51.450;-2.624;2023-03-03T04:53:25;5.80;99.90
24148;DHT22;12309;51.450;-2.624;2023-03-03T04:55:55;5.80;99.90
24148;DHT22;12309;51.450;-2.624;2023-03-03T04:58:20;5.90;99.90
24148;DHT22;12309;51.450;-2.624;2023-03-03T05:00:47;5.80;99.90
24148;DHT22;12309;51.450;-2.624;2023-03-03T05:03:17;5.70;99.90
24148;DHT22;12309;51.450;-2.624;2023-03-03T05:05:45;5.70;99.90
24148;DHT22;12309;51.450;-2.624;2023-03-03T05:08:11;5.70;99.90
24148;DHT22;12309;51.450;-2.624;2023-03-03T05:10:37;5.70;99.90
24148;DHT22;12309;51.450;-2.624;2023-03-03T05:13:03;5.70;99.90
24148;DHT22;12309;51.450;-2.624;2023-03-03T05:15:29;5.70;99.90
24148;DHT22;12309;51.450;-2.624;2023-03-03T05:17:55;5.70;99.90
24148;DHT22;12309;51.450;-2.624;2023-03-03T05:20:21;5.70;99.90
24148;DHT22;12309;51.450;-2.624;2023-03-03T05:22:47;5.70;99.90
24148;DHT22;12309;51.450;-2.624;2023-03-03T05:25:13;7.10;99.90
24148;DHT22;12309;51.450;-2.624;2023-03-03T05:27:38;5.80;99.90
24148;DHT22;12309;51.450;-2.624;2023-03-03T05:30:04;5.80;99.90
24148;DHT22;12309;51.450;-2.624;2023-03-03T05:32:30;5.80;99.90
24148;DHT22;12309;51.450;-2.624;2023-03-03T05:34:56;5.80;99.90
24148;DHT22;12309;51.450;-2.624;2023-03-03T05:37:22;5.80;99.90
24148;DHT22;12309;51.450;-2.624;2023-03-03T05:39:49;5.90;99.90
24148;DHT22;12309;51.450;-2.624;2023-03-03T05:42:14;5.80;99.90
24148;DHT22;12309;51.450;-2.624;2023-03-03T05:44:40;5.80;99.90
24148;DHT22;12309;51.450;-2.624;2023-03-03T05:47:06;6.00;99.90
24148;DHT22;12309;51.450;-2.624;2023-03-03T05:49:31;5.70;99.90
24148;DHT22;12309;51.450;-2.624;2023-03-03T05:51:57;5.70;99.90
24148;DHT22;12309;51.450;-2.624;2023-03-03T05:54:23;5.80;99.90
24148;DHT22;12309;51.450;-2.624;2023-03-03T05:56:49;5.70;99.90
24148;DHT22;12309;51.450;-2.624;2023-03-03T05:59:15;5.70;99.90
24148;DHT22;12309;51.450;-2.624;2023-03-03T06:01:40;5.70;99.90
24148;DHT22;12309;51.450;-2.624;2023-03-03T06:04:06;5.70;99.90
24148;DHT22;12309;51.450;-2.624;2023-03-03T06:06:33;5.70;99.90
24148;DHT22;12309;51.450;-2.624;2023-03-03T06:08:58;5.70;99.90
24148;DHT22;12309;51.450;-2.624;2023-03-03T06:11:24;5.70;99.90
24148;DHT22;12309;51.450;-2.624;2023-03-03T06:13:50;5.70;99.90
24148;DHT22;12309;51.450;-2.624;2023-03-03T06:16:15;5.70;99.90
24148;DHT22;12309;51.450;-2.624;2023-03-03T06:18:41;5.70;99.90
24148;DHT22;12309;51.450;-2.624;2023-03-03T06:21:07;5.60;99.90
24148;DHT22;12309;51.450;-2.624;2023-03-03T06:23:32;5.60;99.90
24148;DHT22;12309;51.450;-2.624;2023-03-03T06:25:58;5.70;99.90
24148;DHT22;12309;51.450;-2.624;2023-03-03T06:28:24;5.60;99.90
24148;DHT22;12309;51.450;-2.624;2023-03-03T06:30:56;5.60;99.90
24148;DHT22;12309;51.450;-2.624;2023-03-03T06:33:21;5.60;99.90
24148;DHT22;12309;51.450;-2.624;2023-03-03T06:35:51;5.60;99.90
24148;DHT22;12309;51.450;-2.624;2023-03-03T06:38:17;5.60;99.90
24148;DHT22;12309;51.450;-2.624;2023-03-03T06:40:44;5.50;99.90
24148;DHT22;12309;51.450;-2.624;2023-03-03T06:43:10;5.60;99.90
24148;DHT22;12309;51.450;-2.624;2023-03-03T06:45:35;5.60;99.90
24148;DHT22;12309;51.450;-2.624;2023-03-03T06:48:01;5.70;99.90
24148;DHT22;12309;51.450;-2.624;2023-03-03T06:50:27;5.80;99.90
24148;DHT22;12309;51.450;-2.624;2023-03-03T06:53:13;5.70;99.90
24148;DHT22;12309;51.450;-2.624;2023-03-03T06:55:39;5.70;99.90
24148;DHT22;12309;51.450;-2.624;2023-03-03T06:58:16;5.50;99.90
24148;DHT22;12309;51.450;-2.624;2023-03-03T07:00:44;5.60;99.90
24148;DHT22;12309;51.450;-2.624;2023-03-03T07:03:16;5.60;99.90
24148;DHT22;12309;51.450;-2.624;2023-03-03T07:05:42;5.60;99.90
24148;DHT22;12309;51.450;-2.624;2023-03-03T07:08:15;5.60;99.90
24148;DHT22;12309;51.450;-2.624;2023-03-03T07:10:41;5.60;99.90
24148;DHT22;12309;51.450;-2.624;2023-03-03T07:13:22;5.60;99.90
24148;DHT22;12309;51.450;-2.624;2023-03-03T07:15:50;5.50;99.90
24148;DHT22;12309;51.450;-2.624;2023-03-03T07:18:39;5.50;99.90
24148;DHT22;12309;51.450;-2.624;2023-03-03T07:21:39;5.50;99.90
24148;DHT22;12309;51.450;-2.624;2023-03-03T07:26:43;5.40;99.90
24148;DHT22;12309;51.450;-2.624;2023-03-03T07:29:24;5.50;99.90
24148;DHT22;12309;51.450;-2.624;2023-03-03T07:31:54;5.40;99.90
24148;DHT22;12309;51.450;-2.624;2023-03-03T07:36:57;5.50;99.90
24148;DHT22;12309;51.450;-2.624;2023-03-03T07:39:44;5.60;99.90
24148;DHT22;12309;51.450;-2.624;2023-03-03T07:42:21;5.60;99.90
24148;DHT22;12309;51.450;-2.624;2023-03-03T07:44:53;5.60;99.90
24148;DHT22;12309;51.450;-2.624;2023-03-03T07:47:25;5.60;99.90
24148;DHT22;12309;51.450;-2.624;2023-03-03T07:49:56;5.60;99.90
24148;DHT22;12309;51.450;-2.624;2023-03-03T07:52:29;5.70;99.90
24148;DHT22;12309;51.450;-2.624;2023-03-03T07:54:58;5.60;99.90
24148;DHT22;12309;51.450;-2.624;2023-03-03T07:57:37;5.60;99.90
24148;DHT22;12309;51.450;-2.624;2023-03-03T08:03:15;5.60;99.90
24148;DHT22;12309;51.450;-2.624;2023-03-03T08:05:43;5.70;99.90
24148;DHT22;12309;51.450;-2.624;2023-03-03T08:08:13;5.80;99.90
24148;DHT22;12309;51.450;-2.624;2023-03-03T08:10:54;6.80;99.90
24148;DHT22;12309;51.450;-2.624;2023-03-03T08:13:22;5.90;99.90
24148;DHT22;12309;51.450;-2.624;2023-03-03T08:16:36;6.00;99.90
24148;DHT22;12309;51.450;-2.624;2023-03-03T08:18:39;5.90;99.90
24148;DHT22;12309;51.450;-2.624;2023-03-03T08:23:31;5.90;99.90
24148;DHT22;12309;51.450;-2.624;2023-03-03T08:25:57;6.00;99.90
24148;DHT22;12309;51.450;-2.624;2023-03-03T08:28:23;5.90;99.90
24148;DHT22;12309;51.450;-2.624;2023-03-03T08:30:49;6.00;99.90
24148;DHT22;12309;51.450;-2.624;2023-03-03T08:33:16;6.10;99.90
24148;DHT22;12309;51.450;-2.624;2023-03-03T08:35:42;6.00;99.90
24148;DHT22;12309;51.450;-2.624;2023-03-03T08:38:09;6.00;99.90
24148;DHT22;12309;51.450;-2.624;2023-03-03T08:40:35;6.00;99.90
24148;DHT22;12309;51.450;-2.624;2023-03-03T08:43:01;6.00;99.90
24148;DHT22;12309;51.450;-2.624;2023-03-03T08:45:27;6.00;99.90
24148;DHT22;12309;51.450;-2.624;2023-03-03T08:47:56;6.00;99.90
24148;DHT22;12309;51.450;-2.624;2023-03-03T08:50:24;6.10;99.90
24148;DHT22;12309;51.450;-2.624;2023-03-03T08:52:50;6.10;99.90
24148;DHT22;12309;51.450;-2.624;2023-03-03T08:55:16;6.10;99.90
24148;DHT22;12309;51.450;-2.624;2023-03-03T08:57:42;6.10;99.90
24148;DHT22;12309;51.450;-2.624;2023-03-03T09:00:10;6.20;99.90
24148;DHT22;12309;51.450;-2.624;2023-03-03T09:02:36;6.20;99.90
24148;DHT22;12309;51.450;-2.624;2023-03-03T09:05:03;6.30;99.90
24148;DHT22;12309;51.450;-2.624;2023-03-03T09:07:29;6.40;99.90
24148;DHT22;12309;51.450;-2.624;2023-03-03T09:09:54;6.40;99.90
24148;DHT22;12309;51.450;-2.624;2023-03-03T09:12:37;6.40;99.90
24148;DHT22;12309;51.450;-2.624;2023-03-03T09:23:16;6.80;99.90
24148;DHT22;12309;51.450;-2.624;2023-03-03T09:25:44;6.70;99.90
24148;DHT22;12309;51.450;-2.624;2023-03-03T09:28:31;6.80;99.90
24148;DHT22;12309;51.450;-2.624;2023-03-03T09:31:02;6.90;99.90
24148;DHT22;12309;51.450;-2.624;2023-03-03T09:33:46;6.90;99.90
24148;DHT22;12309;51.450;-2.624;2023-03-03T09:36:22;6.90;99.90
24148;DHT22;12309;51.450;-2.624;2023-03-03T09:38:48;7.00;99.90
24148;DHT22;12309;51.450;-2.624;2023-03-03T09:46:42;7.00;99.90
24148;DHT22;12309;51.450;-2.624;2023-03-03T09:49:32;7.00;99.90
24148;DHT22;12309;51.450;-2.624;2023-03-03T09:52:16;7.00;99.90
24148;DHT22;12309;51.450;-2.624;2023-03-03T09:58:07;6.90;99.90
24148;DHT22;12309;51.450;-2.624;2023-03-03T10:00:57;6.80;99.90
24148;DHT22;12309;51.450;-2.624;2023-03-03T10:06:24;7.00;99.90
24148;DHT22;12309;51.450;-2.624;2023-03-03T10:09:28;7.20;99.90
24148;DHT22;12309;51.450;-2.624;2023-03-03T10:29:12;7.10;99.90
24148;DHT22;12309;51.450;-2.624;2023-03-03T10:40:12;7.50;99.90
24148;DHT22;12309;51.450;-2.624;2023-03-03T10:51:01;7.30;99.90
24148;DHT22;12309;51.450;-2.624;2023-03-03T11:13:01;7.70;99.90
24148;DHT22;12309;51.450;-2.624;2023-03-03T11:15:39;7.60;99.90
24148;DHT22;12309;51.450;-2.624;2023-03-03T11:18:09;7.80;99.90
24148;DHT22;12309;51.450;-2.624;2023-03-03T11:31:46;7.50;99.90
24148;DHT22;12309;51.450;-2.624;2023-03-03T11:38:00;7.60;99.90
24148;DHT22;12309;51.450;-2.624;2023-03-03T11:40:35;7.70;99.90
24148;DHT22;12309;51.450;-2.624;2023-03-03T11:45:46;7.80;99.90
24148;DHT22;12309;51.450;-2.624;2023-03-03T11:51:20;7.50;99.90
24148;DHT22;12309;51.450;-2.624;2023-03-03T11:53:58;7.60;99.90
24148;DHT22;12309;51.450;-2.624;2023-03-03T11:59:03;7.90;99.90
24148;DHT22;12309;51.450;-2.624;2023-03-03T12:01:52;7.90;99.90
24148;DHT22;12309;51.450;-2.624;2023-03-03T12:04:30;7.90;99.90
24148;DHT22;12309;51.450;-2.624;2023-03-03T12:12:42;8.10;99.90
24148;DHT22;12309;51.450;-2.624;2023-03-03T12:21:33;8.30;99.90
24148;DHT22;12309;51.450;-2.624;2023-03-03T12:34:25;8.20;99.90
24148;DHT22;12309;51.450;-2.624;2023-03-03T12:45:50;8.00;99.90
24148;DHT22;12309;51.450;-2.624;2023-03-03T12:48:41;8.00;99.90
24148;DHT22;12309;51.450;-2.624;2023-03-03T12:56:43;8.30;99.90
24148;DHT22;12309;51.450;-2.624;2023-03-03T13:12:26;8.20;99.90
24148;DHT22;12309;51.450;-2.624;2023-03-03T13:15:10;8.20;99.90
24148;DHT22;12309;51.450;-2.624;2023-03-03T13:17:54;8.10;99.90
24148;DHT22;12309;51.450;-2.624;2023-03-03T13:20:41;8.10;99.90
24148;DHT22;12309;51.450;-2.624;2023-03-03T13:25:59;8.00;99.90
24148;DHT22;12309;51.450;-2.624;2023-03-03T13:28:40;8.00;99.90
24148;DHT22;12309;51.450;-2.624;2023-03-03T13:31:27;8.10;99.90
24148;DHT22;12309;51.450;-2.624;2023-03-03T13:33:55;8.10;99.90
24148;DHT22;12309;51.450;-2.624;2023-03-03T13:36:34;8.10;99.90
24148;DHT22;12309;51.450;-2.624;2023-03-03T13:39:11;8.00;99.90
24148;DHT22;12309;51.450;-2.624;2023-03-03T13:41:45;7.90;99.90
24148;DHT22;12309;51.450;-2.624;2023-03-03T13:44:24;7.90;99.90
24148;DHT22;12309;51.450;-2.624;2023-03-03T13:47:04;7.80;99.90
24148;DHT22;12309;51.450;-2.624;2023-03-03T13:52:32;7.80;99.90
24148;DHT22;12309;51.450;-2.624;2023-03-03T13:55:28;7.80;99.90
24148;DHT22;12309;51.450;-2.624;2023-03-03T14:06:35;7.80;99.90
24148;DHT22;12309;51.450;-2.624;2023-03-03T14:09:21;7.90;99.90
24148;DHT22;12309;51.450;-2.624;2023-03-03T14:12:03;7.70;99.90
24148;DHT22;12309;51.450;-2.624;2023-03-03T14:14:40;7.70;99.90
24148;DHT22;12309;51.450;-2.624;2023-03-03T14:17:24;7.80;99.90
24148;DHT22;12309;51.450;-2.624;2023-03-03T14:22:58;7.80;99.90
24148;DHT22;12309;51.450;-2.624;2023-03-03T14:25:26;7.90;99.90
24148;DHT22;12309;51.450;-2.624;2023-03-03T14:28:03;7.90;99.90
24148;DHT22;12309;51.450;-2.624;2023-03-03T14:30:37;7.90;99.90
24148;DHT22;12309;51.450;-2.624;2023-03-03T14:35:38;7.70;99.90
24148;DHT22;12309;51.450;-2.624;2023-03-03T14:38:23;7.70;99.90
24148;DHT22;12309;51.450;-2.624;2023-03-03T14:41:12;7.80;99.90
24148;DHT22;12309;51.450;-2.624;2023-03-03T14:43:39;8.70;99.90
24148;DHT22;12309;51.450;-2.624;2023-03-03T14:46:30;7.70;99.90
24148;DHT22;12309;51.450;-2.624;2023-03-03T14:49:04;7.80;99.90
24148;DHT22;12309;51.450;-2.624;2023-03-03T14:51:47;7.80;99.90
24148;DHT22;12309;51.450;-2.624;2023-03-03T14:54:21;7.70;99.90
24148;DHT22;12309;51.450;-2.624;2023-03-03T14:56:59;7.70;99.90
24148;DHT22;12309;51.450;-2.624;2023-03-03T14:59:26;7.70;99.90
24148;DHT22;12309;51.450;-2.624;2023-03-03T15:04:40;7.70;99.90
24148;DHT22;12309;51.450;-2.624;2023-03-03T15:09:50;7.40;99.90
24148;DHT22;12309;51.450;-2.624;2023-03-03T15:12:25;7.50;99.90
24148;DHT22;12309;51.450;-2.624;2023-03-03T15:15:18;7.60;99.90
24148;DHT22;12309;51.450;-2.624;2023-03-03T15:18:00;7.70;99.90
24148;DHT22;12309;51.450;-2.624;2023-03-03T15:20:36;7.60;99.90
24148;DHT22;12309;51.450;-2.624;2023-03-03T15:23:21;7.60;99.90
24148;DHT22;12309;51.450;-2.624;2023-03-03T15:26:00;7.40;99.90
24148;DHT22;12309;51.450;-2.624;2023-03-03T15:28:54;7.50;99.90
24148;DHT22;12309;51.450;-2.624;2023-03-03T15:31:52;7.50;99.90
24148;DHT22;12309;51.450;-2.624;2023-03-03T15:47:49;7.10;99.90
24148;DHT22;12309;51.450;-2.624;2023-03-03T15:50:23;7.40;99.90
24148;DHT22;12309;51.450;-2.624;2023-03-03T16:03:44;7.20;99.90
24148;DHT22;12309;51.450;-2.624;2023-03-03T16:09:02;7.30;99.90
24148;DHT22;12309;51.450;-2.624;2023-03-03T16:17:53;7.10;99.90
24148;DHT22;12309;51.450;-2.624;2023-03-03T16:23:05;7.00;99.90
24148;DHT22;12309;51.450;-2.624;2023-03-03T16:28:41;7.10;99.90
24148;DHT22;12309;51.450;-2.624;2023-03-03T16:33:50;7.20;99.90
24148;DHT22;12309;51.450;-2.624;2023-03-03T16:41:58;7.10;99.90
24148;DHT22;12309;51.450;-2.624;2023-03-03T17:04:29;6.60;99.90
24148;DHT22;12309;51.450;-2.624;2023-03-03T17:07:11;6.70;99.90
24148;DHT22;12309;51.450;-2.624;2023-03-03T17:18:10;6.60;99.90
24148;DHT22;12309;51.450;-2.624;2023-03-03T17:20:45;6.70;99.90
24148;DHT22;12309;51.450;-2.624;2023-03-03T17:26:36;6.60;99.90
24148;DHT22;12309;51.450;-2.624;2023-03-03T17:32:11;6.60;99.90
24148;DHT22;12309;51.450;-2.624;2023-03-03T17:45:08;6.60;99.90
24148;DHT22;12309;51.450;-2.624;2023-03-03T17:50:24;6.50;99.90
24148;DHT22;12309;51.450;-2.624;2023-03-03T18:06:25;6.40;99.90
24148;DHT22;12309;51.450;-2.624;2023-03-03T18:11:55;6.40;99.90
24148;DHT22;12309;51.450;-2.624;2023-03-03T18:20:41;6.40;99.90
24148;DHT22;12309;51.450;-2.624;2023-03-03T18:23:36;6.40;99.90
24148;DHT22;12309;51.450;-2.624;2023-03-03T18:26:40;6.40;99.90
24148;DHT22;12309;51.450;-2.624;2023-03-03T18:37:00;6.40;99.90
24148;DHT22;12309;51.450;-2.624;2023-03-03T18:44:35;6.40;99.90
24148;DHT22;12309;51.450;-2.624;2023-03-03T18:47:00;6.50;99.90
24148;DHT22;12309;51.450;-2.624;2023-03-03T18:52:27;6.50;99.90
24148;DHT22;12309;51.450;-2.624;2023-03-03T18:57:34;6.40;99.90
24148;DHT22;12309;51.450;-2.624;2023-03-03T19:00:21;6.50;99.90
24148;DHT22;12309;51.450;-2.624;2023-03-03T19:02:52;6.50;99.90
24148;DHT22;12309;51.450;-2.624;2023-03-03T19:05:22;6.50;99.90
24148;DHT22;12309;51.450;-2.624;2023-03-03T19:10:55;6.50;99.90
24148;DHT22;12309;51.450;-2.624;2023-03-03T19:16:03;6.50;99.90
24148;DHT22;12309;51.450;-2.624;2023-03-03T19:21:34;6.30;99.90
24148;DHT22;12309;51.450;-2.624;2023-03-03T19:24:25;6.30;99.90
24148;DHT22;12309;51.450;-2.624;2023-03-03T19:26:54;6.30;99.90
24148;DHT22;12309;51.450;-2.624;2023-03-03T19:29:33;6.30;99.90
24148;DHT22;12309;51.450;-2.624;2023-03-03T19:32:38;6.40;99.90
24148;DHT22;12309;51.450;-2.624;2023-03-03T19:40:53;6.30;99.90
24148;DHT22;12309;51.450;-2.624;2023-03-03T19:51:58;6.30;99.90
24148;DHT22;12309;51.450;-2.624;2023-03-03T20:00:42;6.30;99.90
24148;DHT22;12309;51.450;-2.624;2023-03-03T20:09:23;6.30;99.90
24148;DHT22;12309;51.450;-2.624;2023-03-03T20:14:47;6.20;99.90
24148;DHT22;12309;51.450;-2.624;2023-03-03T20:20:23;6.20;99.90
24148;DHT22;12309;51.450;-2.624;2023-03-03T20:31:26;6.20;99.90
24148;DHT22;12309;51.450;-2.624;2023-03-03T20:39:34;6.20;99.90
24148;DHT22;12309;51.450;-2.624;2023-03-03T20:45:30;6.10;99.90
24148;DHT22;12309;51.450;-2.624;2023-03-03T20:48:21;6.10;99.90
24148;DHT22;12309;51.450;-2.624;2023-03-03T20:53:47;6.10;99.90
24148;DHT22;12309;51.450;-2.624;2023-03-03T20:56:31;6.10;99.90
24148;DHT22;12309;51.450;-2.624;2023-03-03T20:59:22;6.10;99.90
24148;DHT22;12309;51.450;-2.624;2023-03-03T21:04:29;6.10;99.90
24148;DHT22;12309;51.450;-2.624;2023-03-03T21:06:56;6.10;99.90
24148;DHT22;12309;51.450;-2.624;2023-03-03T21:09:23;6.10;99.90
24148;DHT22;12309;51.450;-2.624;2023-03-03T21:11:49;6.10;99.90
24148;DHT22;12309;51.450;-2.624;2023-03-03T21:14:29;6.10;99.90
24148;DHT22;12309;51.450;-2.624;2023-03-03T21:16:57;6.10;99.90
24148;DHT22;12309;51.450;-2.624;2023-03-03T21:21:51;5.90;99.90
24148;DHT22;12309;51.450;-2.624;2023-03-03T21:24:17;6.10;99.90
24148;DHT22;12309;51.450;-2.624;2023-03-03T21:26:57;6.10;99.90
24148;DHT22;12309;51.450;-2.624;2023-03-03T21:29:27;6.10;99.90
24148;DHT22;12309;51.450;-2.624;2023-03-03T21:31:57;6.00;99.90
24148;DHT22;12309;51.450;-2.624;2023-03-03T21:36:53;6.00;99.90
24148;DHT22;12309;51.450;-2.624;2023-03-03T21:39:30;6.00;99.90
24148;DHT22;12309;51.450;-2.624;2023-03-03T21:47:08;6.00;99.90
24148;DHT22;12309;51.450;-2.624;2023-03-03T21:49:34;6.00;99.90
24148;DHT22;12309;51.450;-2.624;2023-03-03T21:52:00;6.00;99.90
24148;DHT22;12309;51.450;-2.624;2023-03-03T21:54:26;6.00;99.90
24148;DHT22;12309;51.450;-2.624;2023-03-03T21:56:53;6.00;99.90
24148;DHT22;12309;51.450;-2.624;2023-03-03T21:59:18;6.10;99.90
24148;DHT22;12309;51.450;-2.624;2023-03-03T22:01:44;6.10;99.90
24148;DHT22;12309;51.450;-2.624;2023-03-03T22:04:10;6.00;99.90
24148;DHT22;12309;51.450;-2.624;2023-03-03T22:06:36;6.20;99.90
24148;DHT22;12309;51.450;-2.624;2023-03-03T22:09:03;6.20;99.90
24148;DHT22;12309;51.450;-2.624;2023-03-03T22:11:29;6.20;99.90
24148;DHT22;12309;51.450;-2.624;2023-03-03T22:13:54;6.20;99.90
24148;DHT22;12309;51.450;-2.624;2023-03-03T22:16:20;6.20;99.90
24148;DHT22;12309;51.450;-2.624;2023-03-03T22:18:46;6.30;99.90
24148;DHT22;12309;51.450;-2.624;2023-03-03T22:21:12;6.20;99.90
24148;DHT22;12309;51.450;-2.624;2023-03-03T22:23:38;6.20;99.90
24148;DHT22;12309;51.450;-2.624;2023-03-03T22:26:03;6.30;99.90
24148;DHT22;12309;51.450;-2.624;2023-03-03T22:28:29;6.30;99.90
24148;DHT22;12309;51.450;-2.624;2023-03-03T22:30:55;6.30;99.90
24148;DHT22;12309;51.450;-2.624;2023-03-03T22:33:21;6.30;99.90
24148;DHT22;12309;51.450;-2.624;2023-03-03T22:35:47;6.30;99.90